RJSF/FKS METAR and TAF weather

Enter ICAO airport designator
Station Type Date Time Source
RJSF METAR 2019/10/22 11:13 UTC NOAA

RJSF 221113Z 36015KT 2000 -RA BR FEW001 SCT002 BKN003 12/12 Q1013 RMK 1ST001 3ST002 7ST003 A2992


Station Type Date Time Source
RJSF Decoded METAR 2019/10/22 11:13 UTC NOAA

Fukushima Airport, Japan (RJSF) 37-14N 140-26E 375M
Oct 22, 2019 - 07:13 AM EDT / 2019.10.22 1113 UTC
Wind: from the N (360 degrees) at 17 MPH (15 KT):0
Visibility: 1 mile(s):0
Sky conditions: mostly cloudy
Weather: light rain; mist
Temperature: 53 F (12 C)
Dew Point: 53 F (12 C)
Relative Humidity: 100%
Pressure (altimeter): 29.91 in. Hg (1013 hPa)
ob: RJSF 221113Z 36015KT 2000 -RA BR FEW001 SCT002 BKN003 12/12 Q1013 RMK 1ST001 3ST002 7ST003 A2992
cycle: 11

Station Type Date Time Source
RJSF TAF 2019/10/22 12:30 UTC NOAA

TAF RJSF 221106Z 2212/2318 36008KT 3000 BR FEW001 BKN003
TEMPO 2212/2216 0700 FG
BECMG 2216/2218 9999 NSW FEW010 BKN020

Example: see airport list